Quick Links (Output Below):   Max & Min Temps   /   Climate Reports   /   Zone Forecasts
River Forecasts   /   Forestry Forecasts   /   Aviation Forecasts   /   Radars   /   Features

Terminal Aerodrome Forecast (Jonesboro)

Pick a Site:
Arkadelphia | El Dorado | Fayetteville | Fort Smith | Harrison | Highfill | Hot Springs | Jonesboro
Little Rock | Monticello | Mountain Home | Pine Bluff | Texarkana
 Forecast 

KJBR 210524Z 2106/2206 VRB03KT P6SM SKC
     FM211500 03005KT P6SM SKC
     FM220000 VRB03KT P6SM SKC=


 Latest METARs (Observations) 
How to Decode METARs
07Z KJBR 210653Z AUTO 33004KT 10SM CLR 16/14 A3003 RMK AO2 SLP166
         T01560139
         
06Z KJBR 210553Z AUTO 30008KT 10SM CLR 17/14 A3002 RMK AO2 SLP164
         T01670139 10194 20161 402390089 58000
         
05Z KJBR 210453Z AUTO 29007KT 10SM CLR 17/14 A3002 RMK AO2 SLP165
         T01720139
         
04Z KJBR 210353Z AUTO 27005KT 10SM CLR 17/13 A3003 RMK AO2 SLP166
         T01720133
         
03Z KJBR 210253Z AUTO 25004KT 10SM CLR 17/13 A3002 RMK AO2 SLP164
         T01670133 53009
         
02Z KJBR 210153Z AUTO 25006KT 10SM FEW002 18/13 A3001 RMK AO2 SLP159
         T01830133
         
01Z KJBR 210053Z AUTO 24008KT 10SM CLR 18/13 A3001 RMK AO2 SLP160
         T01830133
         
00Z KJBR 202353Z AUTO 22008KT 10SM FEW060 20/13 A2999 RMK AO2 SLP156
         T02000128 10239 20200 53002
         
***** Today's Observations (Above) *****


23Z KJBR 202253Z AUTO 21006KT 10SM FEW060 21/12 A2998 RMK AO2 SLP151
         T02110122
         
22Z KJBR 202153Z AUTO 25008KT 10SM FEW060 23/12 A2998 RMK AO2 SLP151
         T02280117
         
***** Yesterday's Observations (Above) *****


Back to Main Page
http://www.srh.noaa.gov/lzk/qfcst.php

USA.gov is the U.S. government's official web portal to all federal, state and local government web resources and services.